72XS weather

Public forecast

Using degrees Fahrenheit for public forecast. Weather courtesy of forecast.io.

Closest aviation weather report (METAR) to El Paisano Airport

Closest report is Fayette Regional Air Center Airport, 15.7 nm (29.1 km) WSW. Retrieved 2020/08/14 17:35 UTC (0 seconds ago):

K3T5 141735Z AUTO 23008KT 170V240 10SM CLR 36/21 A2993 RMK AO2 T03630208

Closest aviation forecast (TAF) to El Paisano Airport

Closest forecast is Easterwood Field, 37.2 nm (69.0 km) NNE. Retrieved 2020/08/14 12:22 UTC (5 hours ago):

TAF KCLL 141120Z 1412/1512 20006KT 6SM BR SCT010 FM141300 21006KT 6SM BR FEW015 SCT035 FM141400 21008KT P6SM FEW070 FM141900 19008KT P6SM SKC